createdAt,value
2018-11-14T00:02:11.768Z,13.16
2018-11-14T00:04:40.238Z,12.96
2018-11-14T00:07:08.674Z,12.86
2018-11-14T00:09:37.176Z,12.76
2018-11-14T00:12:06.107Z,12.66
2018-11-14T00:14:34.547Z,12.65
2018-11-14T00:17:03.300Z,12.81
2018-11-14T00:19:31.782Z,12.55
2018-11-14T00:22:00.226Z,12.72
2018-11-14T00:24:28.789Z,12.72
2018-11-14T00:26:57.224Z,12.94
2018-11-14T00:29:25.688Z,12.76
2018-11-14T00:31:54.175Z,12.46
2018-11-14T00:34:22.637Z,12.51
2018-11-14T00:36:51.107Z,12.41
2018-11-14T00:39:19.651Z,12.54
2018-11-14T00:41:48.119Z,12.73
2018-11-14T00:44:16.580Z,12.57
2018-11-14T00:46:45.044Z,12.57
2018-11-14T00:49:13.486Z,12.69
2018-11-14T00:51:41.959Z,12.13
2018-11-14T00:54:10.419Z,12.13
2018-11-14T00:56:38.870Z,12.66
2018-11-14T00:59:07.330Z,12.38
2018-11-14T01:01:36.092Z,12.53
2018-11-14T01:04:04.739Z,12.39
2018-11-14T01:06:33.173Z,12.34
2018-11-14T01:09:01.649Z,12.25
2018-11-14T01:11:30.264Z,12.09
2018-11-14T01:13:58.727Z,12.44
2018-11-14T01:16:27.177Z,12.05
2018-11-14T01:18:55.943Z,11.94
2018-11-14T01:21:24.614Z,12.57
2018-11-14T01:23:53.244Z,12.73
2018-11-14T01:26:21.711Z,12.47
2018-11-14T01:28:50.174Z,12.53
2018-11-14T01:31:18.818Z,12.38
2018-11-14T01:33:47.532Z,12.34
2018-11-14T01:36:16.042Z,12.20
2018-11-14T01:38:44.539Z,12.22
2018-11-14T01:41:12.987Z,11.94
2018-11-14T01:43:41.471Z,12.52
2018-11-14T01:46:10.280Z,12.05
2018-11-14T01:48:38.779Z,11.95
2018-11-14T01:51:07.544Z,11.99
2018-11-14T01:53:36.003Z,12.29
2018-11-14T01:56:04.748Z,12.33
2018-11-14T01:58:33.351Z,12.36
2018-11-14T02:01:01.812Z,12.15
2018-11-14T02:03:30.374Z,11.93
2018-11-14T02:05:59.168Z,11.71
2018-11-14T02:08:27.703Z,11.23
2018-11-14T02:10:56.175Z,11.37
2018-11-14T02:13:24.655Z,11.63
2018-11-14T02:15:53.180Z,11.57
2018-11-14T02:18:21.673Z,11.48
2018-11-14T02:20:50.166Z,11.54
2018-11-14T02:23:18.623Z,11.77
2018-11-14T02:25:47.070Z,12.08
2018-11-14T02:28:15.578Z,11.65
2018-11-14T02:30:44.085Z,11.65
2018-11-14T02:33:12.609Z,11.89
2018-11-14T02:35:41.109Z,11.81
2018-11-14T02:38:09.587Z,11.71
2018-11-14T02:40:38.095Z,11.84
2018-11-14T02:43:06.919Z,11.61
2018-11-14T02:45:35.399Z,11.46
2018-11-14T02:48:03.931Z,11.19
2018-11-14T02:50:32.519Z,11.23
2018-11-14T02:53:01.232Z,11.33
2018-11-14T02:55:29.688Z,10.97
2018-11-14T02:57:58.152Z,11.35
2018-11-14T03:00:26.663Z,11.25
2018-11-14T03:02:55.424Z,11.13
2018-11-14T03:05:23.928Z,11.11
2018-11-14T03:07:52.420Z,10.85
2018-11-14T03:10:21.953Z,10.82
2018-11-14T03:12:50.479Z,11.08
2018-11-14T03:15:22.724Z,11.07
2018-11-14T03:17:51.268Z,11.63
2018-11-14T03:20:21.153Z,10.79
2018-11-14T03:22:49.679Z,10.73
2018-11-14T03:25:18.191Z,10.95
2018-11-14T03:27:46.663Z,10.62
2018-11-14T03:30:16.500Z,10.72
2018-11-14T03:32:45.483Z,10.10
2018-11-14T03:35:14.596Z,10.61
2018-11-14T03:37:43.078Z,9.96
2018-11-14T03:40:14.334Z,10.62
2018-11-14T03:42:42.872Z,11.05
2018-11-14T03:45:12.735Z,10.92
2018-11-14T03:47:41.923Z,10.68
2018-11-14T03:50:11.032Z,10.80
2018-11-14T03:52:40.581Z,10.86
2018-11-14T03:55:09.068Z,10.67
2018-11-14T03:57:37.599Z,10.90
2018-11-14T04:00:09.105Z,10.54
2018-11-14T04:02:37.632Z,10.48
2018-11-14T04:05:06.674Z,10.56
2018-11-14T04:07:35.146Z,10.59
2018-11-14T04:10:03.658Z,10.54
2018-11-14T04:12:32.121Z,10.78
2018-11-14T04:15:00.579Z,10.95
2018-11-14T04:17:29.377Z,11.92
2018-11-14T04:19:58.446Z,13.02
2018-11-14T04:22:26.953Z,13.75
2018-11-14T04:24:55.448Z,12.60
2018-11-14T04:27:23.935Z,11.56
2018-11-14T04:29:52.560Z,11.31
2018-11-14T04:32:21.020Z,12.22
2018-11-14T04:34:49.548Z,11.66
2018-11-14T04:37:18.071Z,11.97
2018-11-14T04:39:47.055Z,10.43
2018-11-14T04:42:46.193Z,10.21
2018-11-14T04:45:18.307Z,10.05
2018-11-14T04:47:46.926Z,10.23
2018-11-14T04:50:17.719Z,10.05
2018-11-14T04:52:47.292Z,9.99
2018-11-14T04:55:17.163Z,10.14
2018-11-14T04:57:45.954Z,10.25
2018-11-14T05:00:15.496Z,10.38
2018-11-14T05:02:44.682Z,10.39
2018-11-14T05:05:15.755Z,10.60
2018-11-14T05:07:44.250Z,10.82
2018-11-14T05:10:17.091Z,11.03
2018-11-14T05:12:45.890Z,10.86
2018-11-14T05:15:15.809Z,11.03
2018-11-14T05:17:45.019Z,10.66
2018-11-14T05:20:14.608Z,10.93
2018-11-14T05:22:43.614Z,11.18
2018-11-14T05:25:12.162Z,10.98
2018-11-14T05:27:40.987Z,10.94
2018-11-14T05:30:11.624Z,11.09
2018-11-14T05:32:40.124Z,10.54
2018-11-14T05:35:10.092Z,10.33
2018-11-14T05:37:39.112Z,10.56
2018-11-14T05:40:10.782Z,10.83
2018-11-14T05:42:39.878Z,10.94
2018-11-14T05:45:10.745Z,10.92
2018-11-14T05:47:39.408Z,10.73
2018-11-14T05:50:12.090Z,10.75
2018-11-14T05:52:40.887Z,11.05
2018-11-14T05:55:10.382Z,10.30
2018-11-14T05:57:39.247Z,10.02
2018-11-14T06:00:12.884Z,10.70
2018-11-14T06:02:41.353Z,10.65
2018-11-14T06:05:10.363Z,10.67
2018-11-14T06:07:39.470Z,11.03
2018-11-14T06:10:09.860Z,11.11
2018-11-14T06:12:38.374Z,10.61
2018-11-14T06:15:10.189Z,10.41
2018-11-14T06:17:38.710Z,10.39
2018-11-14T06:20:08.807Z,10.79
2018-11-14T06:22:37.313Z,10.91
2018-11-14T06:25:17.356Z,10.95
2018-11-14T06:27:45.844Z,10.84
2018-11-14T06:30:14.334Z,10.91
2018-11-14T06:32:42.872Z,11.14
2018-11-14T06:35:11.384Z,11.27
2018-11-14T06:37:39.908Z,10.77
2018-11-14T06:40:10.459Z,11.63
2018-11-14T06:42:39.739Z,11.07
2018-11-14T06:45:11.193Z,10.97
2018-11-14T06:47:40.194Z,11.40
2018-11-14T06:50:09.867Z,11.64
2018-11-14T06:52:38.782Z,11.74
2018-11-14T06:55:09.239Z,11.43
2018-11-14T06:57:38.062Z,11.99
2018-11-14T07:00:10.335Z,11.92
2018-11-14T07:02:38.847Z,12.13
2018-11-14T07:05:10.194Z,11.56
2018-11-14T07:07:38.704Z,11.88
2018-11-14T07:10:09.074Z,12.19
2018-11-14T07:12:37.604Z,12.26
2018-11-14T07:15:09.101Z,12.21
2018-11-14T07:17:37.759Z,11.93
2018-11-14T07:20:09.390Z,11.08
2018-11-14T07:22:37.829Z,12.07
2018-11-14T07:25:06.767Z,11.90
2018-11-14T07:27:35.225Z,11.80
2018-11-14T07:30:04.190Z,11.29
2018-11-14T07:32:33.341Z,10.96
2018-11-14T07:35:01.805Z,11.86
2018-11-14T07:37:30.334Z,12.41
2018-11-14T07:39:58.871Z,11.89
2018-11-14T07:42:27.581Z,11.74
2018-11-14T07:44:56.112Z,12.44
2018-11-14T07:47:24.617Z,12.13
2018-11-14T07:49:53.484Z,12.23
2018-11-14T07:52:21.945Z,11.51
2018-11-14T07:54:50.463Z,12.57
2018-11-14T07:57:18.928Z,12.84
2018-11-14T07:59:47.517Z,11.96
2018-11-14T08:02:16.261Z,11.52
2018-11-14T08:04:44.719Z,12.00
2018-11-14T08:07:13.206Z,12.58
2018-11-14T08:09:41.719Z,11.98
2018-11-14T08:12:10.224Z,11.42
2018-11-14T08:14:38.739Z,11.62
2018-11-14T08:17:07.224Z,12.34
2018-11-14T08:19:36.052Z,12.07
2018-11-14T08:22:04.874Z,12.98
2018-11-14T08:24:33.368Z,12.61
2018-11-14T08:27:01.892Z,11.91
2018-11-14T08:29:30.593Z,12.36
2018-11-14T08:31:59.100Z,12.92
2018-11-14T08:34:27.573Z,12.96
2018-11-14T08:36:56.112Z,12.65
2018-11-14T08:39:24.865Z,13.13
2018-11-14T08:41:53.285Z,13.02
2018-11-14T08:44:21.851Z,13.48
2018-11-14T08:46:50.326Z,13.66
2018-11-14T08:49:18.840Z,14.11
2018-11-14T08:51:47.296Z,13.51
2018-11-14T08:54:16.039Z,13.24
2018-11-14T08:56:44.547Z,13.34
2018-11-14T08:59:13.255Z,13.44
2018-11-14T09:01:41.748Z,13.40
2018-11-14T09:04:10.286Z,13.36
2018-11-14T09:06:38.759Z,13.32
2018-11-14T09:09:09.314Z,13.32
2018-11-14T09:11:37.761Z,13.46
2018-11-14T09:14:07.062Z,13.22
2018-11-14T09:16:35.948Z,13.04
2018-11-14T09:19:04.720Z,13.04
2018-11-14T09:21:33.236Z,13.16
2018-11-14T09:24:01.837Z,13.58
2018-11-14T09:26:30.378Z,13.54
2018-11-14T09:28:58.884Z,13.59
2018-11-14T09:31:27.367Z,13.68
2018-11-14T09:33:55.840Z,14.27
2018-11-14T09:36:24.512Z,14.24
2018-11-14T09:38:52.948Z,14.46
2018-11-14T09:41:21.488Z,14.62
2018-11-14T09:43:50.015Z,13.58
2018-11-14T09:46:18.915Z,13.61
2018-11-14T09:48:47.408Z,14.09
2018-11-14T09:51:16.100Z,14.51
2018-11-14T09:53:44.610Z,14.63
2018-11-14T09:56:13.197Z,14.38
2018-11-14T09:58:41.692Z,14.99
2018-11-14T10:01:10.240Z,14.88
2018-11-14T10:03:38.758Z,15.07
2018-11-14T10:06:07.292Z,14.77
2018-11-14T10:08:36.043Z,14.69
2018-11-14T10:11:04.512Z,14.56
2018-11-14T10:13:33.128Z,14.36
2018-11-14T10:16:01.622Z,14.63
2018-11-14T10:18:30.184Z,14.02
2018-11-14T10:20:58.669Z,13.81
2018-11-14T10:23:27.371Z,14.25
2018-11-14T10:25:56.071Z,14.09
2018-11-14T10:28:24.530Z,14.82
2018-11-14T10:30:53.032Z,14.89
2018-11-14T10:33:21.489Z,14.70
2018-11-14T10:35:49.972Z,14.99
2018-11-14T10:38:18.437Z,15.02
2018-11-14T10:40:47.140Z,15.58
2018-11-14T10:43:15.644Z,16.14
2018-11-14T10:45:44.104Z,16.58
2018-11-14T10:48:12.782Z,17.86
2018-11-14T10:50:41.374Z,17.42
2018-11-14T10:53:09.860Z,17.73
2018-11-14T10:55:38.318Z,18.06
2018-11-14T10:58:06.860Z,18.29
2018-11-14T11:00:40.534Z,18.58
2018-11-14T11:03:17.100Z,18.74
2018-11-14T11:05:51.023Z,19.01
2018-11-14T11:08:24.736Z,19.45
2018-11-14T11:10:58.504Z,20.33
2018-11-14T11:13:32.351Z,20.45
2018-11-14T11:16:06.081Z,20.53
2018-11-14T11:18:35.215Z,19.01
2018-11-14T11:21:03.704Z,20.96
2018-11-14T11:23:32.281Z,22.13
2018-11-14T11:26:00.727Z,21.02
2018-11-14T11:28:29.354Z,21.37
2018-11-14T11:30:57.885Z,21.91
2018-11-14T11:33:26.350Z,22.55
2018-11-14T11:35:54.858Z,22.56
2018-11-14T11:38:23.460Z,20.59
2018-11-14T11:40:51.908Z,22.63
2018-11-14T11:43:20.594Z,22.64
2018-11-14T11:45:49.086Z,22.59
2018-11-14T11:48:17.599Z,22.13
2018-11-14T11:50:46.287Z,22.95
2018-11-14T11:53:14.783Z,23.05
2018-11-14T11:55:43.839Z,23.30
2018-11-14T11:58:12.324Z,22.05
2018-11-14T12:00:41.291Z,21.87
2018-11-14T12:03:09.667Z,23.85
2018-11-14T12:05:38.148Z,21.60
2018-11-14T12:08:06.667Z,22.47
2018-11-14T12:10:35.168Z,21.53
2018-11-14T12:13:03.704Z,23.32
2018-11-14T12:15:32.170Z,21.23
2018-11-14T12:18:01.229Z,21.04
2018-11-14T12:20:29.696Z,20.33
2018-11-14T12:22:58.206Z,20.57
2018-11-14T12:25:26.684Z,23.09
2018-11-14T12:27:55.235Z,24.20
2018-11-14T12:30:24.063Z,23.30
2018-11-14T12:32:52.765Z,22.94
2018-11-14T12:35:21.340Z,23.78
2018-11-14T12:37:49.725Z,24.66
2018-11-14T12:40:18.586Z,24.52
2018-11-14T12:42:47.091Z,20.71
2018-11-14T12:45:16.535Z,23.78
2018-11-14T12:47:45.061Z,22.61
2018-11-14T12:50:14.527Z,22.86
2018-11-14T12:52:43.706Z,23.73
2018-11-14T12:55:16.605Z,23.49
2018-11-14T12:57:45.327Z,22.10
2018-11-14T13:00:16.347Z,23.98
2018-11-14T13:02:45.156Z,22.60
2018-11-14T13:05:14.636Z,23.31
2018-11-14T13:07:43.951Z,23.25
2018-11-14T13:10:13.749Z,22.26
2018-11-14T13:12:43.796Z,23.70
2018-11-14T13:15:13.708Z,21.92
2018-11-14T13:17:43.189Z,21.58
2018-11-14T13:20:14.298Z,21.82
2018-11-14T13:22:43.143Z,23.31
2018-11-14T13:25:12.664Z,23.68
2018-11-14T13:27:42.344Z,24.45
2018-11-14T13:30:14.882Z,24.09
2018-11-14T13:32:44.048Z,23.48
2018-11-14T13:35:14.041Z,22.59
2018-11-14T13:37:43.575Z,22.97
2018-11-14T13:40:12.476Z,21.02
2018-11-14T13:42:41.448Z,21.91
2018-11-14T13:45:11.520Z,22.19
2018-11-14T13:47:40.495Z,21.89
2018-11-14T13:50:12.156Z,21.89
2018-11-14T13:52:40.950Z,22.73
2018-11-14T13:55:11.760Z,22.81
2018-11-14T13:57:40.995Z,21.29
2018-11-14T14:00:11.115Z,19.80
2018-11-14T14:02:39.596Z,21.75
2018-11-14T14:05:10.420Z,22.61
2018-11-14T14:07:39.047Z,22.89
2018-11-14T14:10:08.737Z,22.75
2018-11-14T14:12:37.536Z,22.52
2018-11-14T14:15:08.657Z,22.77
2018-11-14T14:17:37.148Z,22.47
2018-11-14T14:20:07.241Z,22.06
2018-11-14T14:22:35.667Z,22.07
2018-11-14T14:25:04.439Z,22.27
2018-11-14T14:27:32.925Z,20.84
2018-11-14T14:30:01.446Z,20.43
2018-11-14T14:32:29.934Z,20.04
2018-11-14T14:34:58.439Z,19.70
2018-11-14T14:37:26.882Z,20.34
2018-11-14T14:39:55.396Z,19.89
2018-11-14T14:42:23.891Z,20.12
2018-11-14T14:44:52.903Z,19.31
2018-11-14T14:47:21.685Z,19.06
2018-11-14T14:49:50.677Z,18.85
2018-11-14T14:52:19.324Z,18.24
2018-11-14T14:54:47.835Z,18.21
2018-11-14T14:57:16.453Z,18.08
2018-11-14T14:59:44.948Z,17.41
2018-11-14T15:02:13.541Z,17.49
2018-11-14T15:04:42.997Z,17.26
2018-11-14T15:07:11.500Z,17.42
2018-11-14T15:09:40.020Z,17.27
2018-11-14T15:12:08.628Z,17.00
2018-11-14T15:14:37.104Z,16.57
2018-11-14T15:17:05.892Z,15.96
2018-11-14T15:19:34.362Z,16.23
2018-11-14T15:22:02.863Z,16.44
2018-11-14T15:24:31.355Z,16.22
2018-11-14T15:26:59.890Z,15.85
2018-11-14T15:29:28.350Z,16.04
2018-11-14T15:31:56.833Z,15.84
2018-11-14T15:34:25.305Z,15.80
2018-11-14T15:36:53.775Z,15.89
2018-11-14T15:39:22.235Z,15.64
2018-11-14T15:41:50.754Z,15.58
2018-11-14T15:44:19.274Z,15.58
2018-11-14T15:46:47.749Z,15.36
2018-11-14T15:49:16.252Z,15.17
2018-11-14T15:51:44.903Z,15.02
2018-11-14T15:54:13.312Z,15.04
2018-11-14T15:56:41.796Z,15.14
2018-11-14T15:59:10.283Z,14.85
2018-11-14T16:01:38.772Z,14.25
2018-11-14T16:04:07.379Z,14.50
2018-11-14T16:06:35.976Z,14.27
2018-11-14T16:09:06.567Z,14.59
2018-11-14T16:11:35.076Z,14.42
2018-11-14T16:14:04.563Z,14.32
2018-11-14T16:16:33.134Z,14.27
2018-11-14T16:19:01.922Z,14.17
2018-11-14T16:21:30.380Z,13.80
2018-11-14T16:23:58.847Z,13.67
2018-11-14T16:26:27.557Z,13.61
2018-11-14T16:28:56.020Z,13.92
2018-11-14T16:31:24.806Z,13.52
2018-11-14T16:33:53.296Z,13.34
2018-11-14T16:36:21.852Z,13.62
2018-11-14T16:38:50.514Z,13.57
2018-11-14T16:41:18.974Z,13.25
2018-11-14T16:43:47.516Z,13.18
2018-11-14T16:46:16.063Z,13.28
2018-11-14T16:48:44.882Z,13.15
2018-11-14T16:51:13.524Z,12.97
2018-11-14T16:53:42.068Z,12.77
2018-11-14T16:56:10.611Z,12.84
2018-11-14T16:58:39.448Z,12.70
2018-11-14T17:01:07.883Z,12.56
2018-11-14T17:03:37.171Z,12.45
2018-11-14T17:06:05.739Z,12.20
2018-11-14T17:08:34.261Z,12.33
2018-11-14T17:11:02.825Z,12.76
2018-11-14T17:13:31.416Z,12.85
2018-11-14T17:15:59.914Z,12.88
2018-11-14T17:18:28.643Z,12.90
2018-11-14T17:20:57.136Z,12.27
2018-11-14T17:23:25.633Z,12.19
2018-11-14T17:25:54.150Z,12.22
2018-11-14T17:28:22.675Z,12.33
2018-11-14T17:30:51.185Z,12.91
2018-11-14T17:33:19.951Z,12.48
2018-11-14T17:35:48.490Z,12.47
2018-11-14T17:38:16.913Z,12.32
2018-11-14T17:40:45.406Z,12.34
2018-11-14T17:43:13.853Z,11.85
2018-11-14T17:45:42.484Z,11.73
2018-11-14T17:48:11.101Z,11.91
2018-11-14T17:50:39.785Z,11.71
2018-11-14T17:53:08.312Z,11.89
2018-11-14T17:55:37.078Z,11.37
2018-11-14T17:58:05.536Z,11.60
2018-11-14T18:00:34.032Z,10.93
2018-11-14T18:03:02.583Z,11.38
2018-11-14T18:05:32.028Z,11.60
2018-11-14T18:08:00.529Z,11.54
2018-11-14T18:10:30.448Z,11.42
2018-11-14T18:13:00.004Z,11.76
2018-11-14T18:15:28.561Z,11.77
2018-11-14T18:17:57.516Z,11.78
2018-11-14T18:20:27.550Z,11.79
2018-11-14T18:22:56.581Z,11.76
2018-11-14T18:25:25.411Z,11.87
2018-11-14T18:27:53.904Z,11.66
2018-11-14T18:30:28.887Z,11.98
2018-11-14T18:32:58.394Z,11.49
2018-11-14T18:35:27.716Z,11.23
2018-11-14T18:37:57.154Z,11.77
2018-11-14T18:40:27.184Z,11.90
2018-11-14T18:42:55.934Z,11.84
2018-11-14T18:45:27.776Z,11.35
2018-11-14T18:47:57.253Z,11.41
2018-11-14T18:50:26.116Z,11.80
2018-11-14T18:52:54.732Z,11.39
2018-11-14T18:55:24.911Z,10.89
2018-11-14T18:57:53.730Z,11.40
2018-11-14T19:00:26.619Z,11.79
2018-11-14T19:02:55.141Z,11.85
2018-11-14T19:05:23.610Z,11.12
2018-11-14T19:07:52.136Z,11.52
2018-11-14T19:10:22.409Z,11.47
2018-11-14T19:13:21.569Z,12.01
2018-11-14T19:15:50.084Z,11.68
2018-11-14T19:18:18.581Z,11.60
2018-11-14T19:20:47.056Z,12.00
2018-11-14T19:23:15.693Z,12.15
2018-11-14T19:25:44.156Z,11.79
2018-11-14T19:28:12.691Z,11.72
2018-11-14T19:30:41.277Z,11.89
2018-11-14T19:33:09.807Z,11.73
2018-11-14T19:35:38.355Z,11.71
2018-11-14T19:38:06.978Z,11.81
2018-11-14T19:40:36.996Z,11.91
2018-11-14T19:43:07.547Z,12.12
2018-11-14T19:45:37.434Z,12.29
2018-11-14T19:48:06.461Z,11.95
2018-11-14T19:50:35.181Z,11.95
2018-11-14T19:53:04.387Z,12.36
2018-11-14T19:55:33.736Z,12.18
2018-11-14T19:58:03.649Z,12.51
2018-11-14T20:00:33.443Z,12.41
2018-11-14T20:03:01.964Z,12.23
2018-11-14T20:05:30.465Z,12.17
2018-11-14T20:07:58.998Z,12.38
2018-11-14T20:10:30.194Z,12.03
2018-11-14T20:12:58.630Z,12.01
2018-11-14T20:15:32.746Z,12.23
2018-11-14T20:18:01.283Z,11.64
2018-11-14T20:20:31.345Z,11.70
2018-11-14T20:22:59.862Z,11.60
2018-11-14T20:25:28.400Z,11.59
2018-11-14T20:27:57.129Z,11.35
2018-11-14T20:30:27.129Z,11.41
2018-11-14T20:32:57.034Z,10.82
2018-11-14T20:35:26.547Z,11.42
2018-11-14T20:37:55.115Z,11.57
2018-11-14T20:40:24.141Z,11.40
2018-11-14T20:42:53.423Z,11.24
2018-11-14T20:45:26.331Z,10.58
2018-11-14T20:47:54.903Z,10.99
2018-11-14T20:50:24.538Z,10.97
2018-11-14T20:52:55.095Z,10.88
2018-11-14T20:55:23.611Z,11.30
2018-11-14T20:57:52.138Z,10.55
2018-11-14T21:00:22.867Z,10.79
2018-11-14T21:02:51.815Z,10.99
2018-11-14T21:05:20.633Z,10.59
2018-11-14T21:07:49.147Z,10.89
2018-11-14T21:10:19.213Z,11.02
2018-11-14T21:12:48.772Z,10.76
2018-11-14T21:15:20.415Z,10.75
2018-11-14T21:17:49.947Z,10.99
2018-11-14T21:20:18.482Z,11.06
2018-11-14T21:22:47.141Z,10.78
2018-11-14T21:25:16.922Z,10.96
2018-11-14T21:27:46.547Z,11.09
2018-11-14T21:30:16.784Z,10.94
2018-11-14T21:32:45.625Z,10.62
2018-11-14T21:35:18.576Z,10.31
2018-11-14T21:37:48.671Z,10.59
2018-11-14T21:40:17.199Z,10.55
2018-11-14T21:42:45.700Z,10.99
2018-11-14T21:45:16.816Z,10.57
2018-11-14T21:47:50.346Z,10.78
2018-11-14T21:50:20.092Z,10.58
2018-11-14T21:52:49.091Z,10.93
2018-11-14T21:55:18.395Z,11.06
2018-11-14T21:57:46.888Z,10.77
2018-11-14T22:00:19.792Z,10.47
2018-11-14T22:02:49.683Z,10.32
2018-11-14T22:05:18.299Z,10.43
2018-11-14T22:07:46.978Z,10.81
2018-11-14T22:10:17.999Z,10.49
2018-11-14T22:12:46.983Z,10.54
2018-11-14T22:15:16.512Z,10.43
2018-11-14T22:17:44.972Z,10.54
2018-11-14T22:20:14.646Z,10.40
2018-11-14T22:22:44.728Z,10.04
2018-11-14T22:25:14.570Z,10.37
2018-11-14T22:27:43.114Z,10.30
2018-11-14T22:30:17.561Z,10.36
2018-11-14T22:32:46.323Z,9.67
2018-11-14T22:35:16.184Z,10.08
2018-11-14T22:37:44.675Z,10.81
2018-11-14T22:40:15.012Z,10.50
2018-11-14T22:42:44.283Z,10.50
2018-11-14T22:45:15.243Z,10.31
2018-11-14T22:47:44.279Z,10.34
2018-11-14T22:50:14.374Z,9.84
2018-11-14T22:52:43.772Z,10.04
2018-11-14T22:55:13.355Z,10.48
2018-11-14T22:57:42.980Z,10.40
2018-11-14T23:00:21.141Z,10.01
2018-11-14T23:02:51.408Z,10.29
2018-11-14T23:05:20.370Z,10.82
2018-11-14T23:07:50.170Z,10.45
2018-11-14T23:10:20.000Z,10.46
2018-11-14T23:12:49.046Z,10.27
2018-11-14T23:15:18.132Z,10.58
2018-11-14T23:17:46.890Z,10.84
2018-11-14T23:20:16.487Z,10.39
2018-11-14T23:22:45.819Z,11.18
2018-11-14T23:25:14.844Z,10.59
2018-11-14T23:27:44.616Z,10.71
2018-11-14T23:30:14.362Z,10.73
2018-11-14T23:32:43.959Z,10.59
2018-11-14T23:35:16.656Z,11.03
2018-11-14T23:37:47.275Z,11.06
2018-11-14T23:40:15.765Z,10.87
2018-11-14T23:42:44.240Z,10.67
2018-11-14T23:45:14.171Z,10.33
2018-11-14T23:47:43.683Z,10.01
2018-11-14T23:50:16.257Z,10.50
2018-11-14T23:52:46.076Z,9.51
2018-11-14T23:55:15.365Z,9.26
2018-11-14T23:57:43.966Z,9.47
